createdAt,value
2023-02-14T00:01:17.016Z,101633.37
2023-02-14T00:03:44.628Z,101625.19
2023-02-14T00:06:13.662Z,101634.31
2023-02-14T00:08:44.312Z,101645.22
2023-02-14T00:11:13.071Z,101630.56
2023-02-14T00:14:00.657Z,101642.53
2023-02-14T00:16:28.473Z,101646.03
2023-02-14T00:19:05.129Z,101639.19
2023-02-14T00:21:37.412Z,101637.31
2023-02-14T00:24:10.023Z,101635.38
2023-02-14T00:26:41.112Z,101632.78
2023-02-14T00:29:10.754Z,101631.16
2023-02-14T00:31:38.958Z,101642.97
2023-02-14T00:34:06.686Z,101634.00
2023-02-14T00:36:34.709Z,101633.72
2023-02-14T00:39:06.655Z,101624.94
2023-02-14T00:41:34.513Z,101633.78
2023-02-14T00:44:02.625Z,101633.91
2023-02-14T00:46:30.080Z,101631.13
2023-02-14T00:48:57.795Z,101619.78
2023-02-14T00:51:26.048Z,101621.81
2023-02-14T00:53:53.408Z,101640.34
2023-02-14T00:56:21.709Z,101638.66
2023-02-14T00:58:49.449Z,101645.84
2023-02-14T01:01:18.756Z,101642.16
2023-02-14T01:03:46.237Z,101642.16
2023-02-14T01:06:14.328Z,101625.44
2023-02-14T01:08:42.033Z,101633.28
2023-02-14T01:11:10.434Z,101626.53
2023-02-14T01:13:38.650Z,101620.66
2023-02-14T01:16:08.555Z,101617.06
2023-02-14T01:18:36.925Z,101614.09
2023-02-14T01:21:26.646Z,101609.50
2023-02-14T01:23:57.986Z,101608.88
2023-02-14T01:26:26.429Z,101603.91
2023-02-14T01:28:54.507Z,101608.53
2023-02-14T01:31:28.018Z,101606.37
2023-02-14T01:33:57.718Z,101601.47
2023-02-14T01:36:33.947Z,101600.00
2023-02-14T01:39:05.377Z,101590.09
2023-02-14T01:41:34.776Z,101583.31
2023-02-14T01:44:03.801Z,101587.84
2023-02-14T01:46:37.018Z,101597.13
2023-02-14T01:49:18.863Z,101590.72
2023-02-14T01:52:10.623Z,101595.09
2023-02-14T01:54:41.848Z,101587.09
2023-02-14T01:57:12.336Z,101594.59
2023-02-14T01:59:45.882Z,101592.63
2023-02-14T02:02:13.336Z,101596.22
2023-02-14T02:04:45.387Z,101592.59
2023-02-14T02:07:17.902Z,101598.06
2023-02-14T02:09:51.616Z,101587.09
2023-02-14T02:12:19.449Z,101582.16
2023-02-14T02:14:48.682Z,101584.03
2023-02-14T02:17:54.397Z,101584.22
2023-02-14T02:21:06.504Z,101581.78
2023-02-14T02:23:58.552Z,101578.41
2023-02-14T02:26:50.902Z,101562.19
2023-02-14T02:29:56.503Z,101560.84
2023-02-14T02:32:30.063Z,101557.50
2023-02-14T02:34:57.625Z,101560.09
2023-02-14T02:38:10.481Z,101565.25
2023-02-14T02:40:50.522Z,101561.25
2023-02-14T02:43:25.330Z,101562.50
2023-02-14T02:46:24.373Z,101567.78
2023-02-14T02:49:48.880Z,101561.09
2023-02-14T02:52:55.239Z,101567.75
2023-02-14T02:55:27.969Z,101565.72
2023-02-14T02:57:56.918Z,101562.19
2023-02-14T03:00:25.098Z,101560.62
2023-02-14T03:03:14.135Z,101560.84
2023-02-14T03:05:42.646Z,101565.16
2023-02-14T03:08:10.001Z,101563.31
2023-02-14T03:10:39.589Z,101558.16
2023-02-14T03:13:16.169Z,101560.00
2023-02-14T03:16:01.673Z,101555.72
2023-02-14T03:19:07.935Z,101557.25
2023-02-14T03:22:03.365Z,101563.84
2023-02-14T03:24:55.991Z,101557.66
2023-02-14T03:27:35.771Z,101556.75
2023-02-14T03:30:28.648Z,101555.69
2023-02-14T03:33:24.105Z,101553.09
2023-02-14T03:36:07.022Z,101552.22
2023-02-14T03:39:36.846Z,101552.75
2023-02-14T03:42:14.610Z,101562.87
2023-02-14T03:44:43.872Z,101555.72
2023-02-14T03:47:23.774Z,101555.94
2023-02-14T03:49:55.553Z,101564.63
2023-02-14T03:52:25.078Z,101566.94
2023-02-14T03:54:54.279Z,101562.19
2023-02-14T03:57:35.298Z,101557.91
2023-02-14T04:00:04.671Z,101559.06
2023-02-14T04:02:43.269Z,101556.31
2023-02-14T04:05:17.167Z,101553.84
2023-02-14T04:07:49.810Z,101559.19
2023-02-14T04:10:18.613Z,101557.97
2023-02-14T04:12:46.350Z,101552.28
2023-02-14T04:15:14.592Z,101557.50
2023-02-14T04:18:01.136Z,101551.69
2023-02-14T04:20:29.111Z,101557.03
2023-02-14T04:22:57.550Z,101557.69
2023-02-14T04:25:25.013Z,101542.47
2023-02-14T04:27:52.544Z,101541.47
2023-02-14T04:30:22.743Z,101535.06
2023-02-14T04:32:50.256Z,101551.16
2023-02-14T04:35:17.735Z,101547.44
2023-02-14T04:37:45.667Z,101552.00
2023-02-14T04:40:17.011Z,101547.91
2023-02-14T04:42:45.863Z,101558.87
2023-02-14T04:45:13.388Z,101563.94
2023-02-14T04:47:40.939Z,101559.50
2023-02-14T04:50:09.088Z,101550.31
2023-02-14T04:52:36.422Z,101546.09
2023-02-14T04:55:04.505Z,101555.72
2023-02-14T04:57:32.325Z,101551.47
2023-02-14T04:59:59.784Z,101551.87
2023-02-14T05:02:27.496Z,101547.00
2023-02-14T05:04:55.232Z,101543.19
2023-02-14T05:07:22.662Z,101542.53
2023-02-14T05:09:50.062Z,101540.84
2023-02-14T05:12:17.723Z,101546.28
2023-02-14T05:14:45.303Z,101552.28
2023-02-14T05:17:12.948Z,101548.84
2023-02-14T05:19:40.607Z,101543.75
2023-02-14T05:22:08.030Z,101551.59
2023-02-14T05:24:35.533Z,101544.66
2023-02-14T05:27:03.299Z,101550.69
2023-02-14T05:29:30.722Z,101547.38
2023-02-14T05:31:58.114Z,101548.03
2023-02-14T05:34:25.753Z,101554.47
2023-02-14T05:36:54.917Z,101555.13
2023-02-14T05:39:22.553Z,101553.16
2023-02-14T05:41:50.248Z,101541.56
2023-02-14T05:44:17.654Z,101555.97
2023-02-14T05:46:45.031Z,101556.03
2023-02-14T05:49:12.642Z,101555.25
2023-02-14T05:51:40.007Z,101559.59
2023-02-14T05:54:08.851Z,101556.41
2023-02-14T05:56:37.633Z,101567.97
2023-02-14T05:59:05.244Z,101565.97
2023-02-14T06:01:32.599Z,101570.94
2023-02-14T06:04:00.380Z,101569.81
2023-02-14T06:06:27.929Z,101564.84
2023-02-14T06:08:55.337Z,101570.44
2023-02-14T06:11:22.984Z,101564.69
2023-02-14T06:13:50.426Z,101565.84
2023-02-14T06:16:18.107Z,101566.81
2023-02-14T06:18:45.807Z,101570.97
2023-02-14T06:21:13.162Z,101566.22
2023-02-14T06:23:40.544Z,101561.53
2023-02-14T06:26:08.310Z,101575.09
2023-02-14T06:28:35.650Z,101574.50
2023-02-14T06:31:03.507Z,101577.75
2023-02-14T06:33:31.340Z,101575.66
2023-02-14T06:35:58.770Z,101579.28
2023-02-14T06:38:26.222Z,101588.72
2023-02-14T06:40:53.853Z,101585.25
2023-02-14T06:43:21.217Z,101593.34
2023-02-14T06:45:48.627Z,101594.69
2023-02-14T06:48:16.334Z,101596.97
2023-02-14T06:50:43.975Z,101602.19
2023-02-14T06:53:11.635Z,101596.25
2023-02-14T06:55:39.344Z,101602.13
2023-02-14T06:58:06.766Z,101601.31
2023-02-14T07:00:34.184Z,101603.16
2023-02-14T07:03:01.906Z,101599.69
2023-02-14T07:05:29.326Z,101603.16
2023-02-14T07:07:56.778Z,101604.84
2023-02-14T07:10:24.663Z,101597.09
2023-02-14T07:12:52.340Z,101602.81
2023-02-14T07:15:19.826Z,101600.00
2023-02-14T07:17:47.521Z,101605.44
2023-02-14T07:20:14.937Z,101602.59
2023-02-14T07:22:42.338Z,101598.41
2023-02-14T07:25:10.420Z,101599.53
2023-02-14T07:27:38.124Z,101602.75
2023-02-14T07:30:06.878Z,101605.03
2023-02-14T07:32:34.564Z,101607.25
2023-02-14T07:35:01.960Z,101609.78
2023-02-14T07:37:29.305Z,101610.13
2023-02-14T07:39:56.920Z,101614.41
2023-02-14T07:42:24.361Z,101616.72
2023-02-14T07:44:51.781Z,101615.72
2023-02-14T07:47:19.424Z,101619.13
2023-02-14T07:49:46.766Z,101618.53
2023-02-14T07:52:14.177Z,101618.25
2023-02-14T07:54:42.227Z,101616.78
2023-02-14T07:57:09.680Z,101621.09
2023-02-14T07:59:37.041Z,101627.00
2023-02-14T08:02:04.856Z,101624.03
2023-02-14T08:04:33.881Z,101627.13
2023-02-14T08:07:01.394Z,101623.63
2023-02-14T08:09:28.869Z,101612.59
2023-02-14T08:12:17.195Z,101616.87
2023-02-14T08:14:45.080Z,101614.34
2023-02-14T08:17:13.903Z,101619.34
2023-02-14T08:19:41.416Z,101616.50
2023-02-14T08:22:08.810Z,101619.84
2023-02-14T08:24:36.506Z,101615.81
2023-02-14T08:27:03.946Z,101616.47
2023-02-14T08:29:31.308Z,101614.50
2023-02-14T08:32:00.347Z,101606.44
2023-02-14T08:34:27.882Z,101619.75
2023-02-14T08:36:55.467Z,101615.09
2023-02-14T08:39:23.288Z,101624.13
2023-02-14T08:41:50.635Z,101618.53
2023-02-14T08:44:18.145Z,101622.97
2023-02-14T08:46:45.942Z,101614.13
2023-02-14T08:49:13.364Z,101612.81
2023-02-14T08:51:40.821Z,101617.97
2023-02-14T08:54:08.517Z,101616.03
2023-02-14T08:56:36.586Z,101614.28
2023-02-14T08:59:04.113Z,101613.50
2023-02-14T09:01:31.959Z,101614.66
2023-02-14T09:03:59.478Z,101615.63
2023-02-14T09:06:26.889Z,101621.78
2023-02-14T09:08:55.178Z,101617.03
2023-02-14T09:11:24.593Z,101613.53
2023-02-14T09:13:55.736Z,101616.34
2023-02-14T09:16:24.607Z,101609.28
2023-02-14T09:18:52.974Z,101620.53
2023-02-14T09:21:23.725Z,101625.56
2023-02-14T09:23:51.930Z,101619.63
2023-02-14T09:26:19.833Z,101633.66
2023-02-14T09:28:47.581Z,101624.50
2023-02-14T09:31:17.168Z,101628.62
2023-02-14T09:34:04.386Z,101621.31
2023-02-14T09:36:32.134Z,101628.53
2023-02-14T09:38:59.589Z,101623.91
2023-02-14T09:41:29.677Z,101633.59
2023-02-14T09:44:08.908Z,101631.03
2023-02-14T09:46:41.818Z,101637.94
2023-02-14T09:49:14.912Z,101631.75
2023-02-14T09:51:47.444Z,101635.09
2023-02-14T09:54:21.929Z,101636.97
2023-02-14T09:56:59.238Z,101634.28
2023-02-14T09:59:42.057Z,101630.88
2023-02-14T10:02:36.517Z,101634.28
2023-02-14T10:05:13.019Z,101636.06
2023-02-14T10:08:06.100Z,101629.13
2023-02-14T10:10:39.973Z,101628.31
2023-02-14T10:13:21.517Z,101631.84
2023-02-14T10:15:54.451Z,101629.87
2023-02-14T10:18:25.457Z,101637.25
2023-02-14T10:20:56.843Z,101627.19
2023-02-14T10:23:47.065Z,101631.78
2023-02-14T10:26:18.487Z,101625.06
2023-02-14T10:28:49.284Z,101622.63
2023-02-14T10:31:32.176Z,101621.38
2023-02-14T10:34:01.990Z,101621.88
2023-02-14T10:36:48.190Z,101622.75
2023-02-14T10:39:43.333Z,101612.00
2023-02-14T10:42:10.944Z,101604.22
2023-02-14T10:45:17.656Z,101609.47
2023-02-14T10:47:57.507Z,101612.75
2023-02-14T10:51:07.111Z,101608.69
2023-02-14T10:53:58.574Z,101608.19
2023-02-14T10:56:57.009Z,101599.31
2023-02-14T10:59:35.827Z,101592.34
2023-02-14T11:02:04.765Z,101598.53
2023-02-14T11:04:32.809Z,101596.09
2023-02-14T11:07:00.205Z,101595.97
2023-02-14T11:09:27.600Z,101598.06
2023-02-14T11:11:59.690Z,101604.94
2023-02-14T11:14:28.810Z,101605.22
2023-02-14T11:16:57.729Z,101601.78
2023-02-14T11:19:30.721Z,101599.28
2023-02-14T11:21:59.884Z,101593.19
2023-02-14T11:24:39.352Z,101596.75
2023-02-14T11:27:14.733Z,101598.12
2023-02-14T11:29:53.104Z,101589.66
2023-02-14T11:32:23.127Z,101583.91
2023-02-14T11:34:57.932Z,101590.75
2023-02-14T11:37:31.685Z,101589.37
2023-02-14T11:40:00.487Z,101587.34
2023-02-14T11:42:36.999Z,101581.94
2023-02-14T11:45:05.529Z,101587.41
2023-02-14T11:47:37.399Z,101585.00
2023-02-14T11:50:21.483Z,101581.50
2023-02-14T11:53:00.061Z,101581.66
2023-02-14T11:55:30.228Z,101587.97
2023-02-14T11:57:58.127Z,101585.44
2023-02-14T12:00:27.035Z,101569.19
2023-02-14T12:02:55.739Z,101575.63
2023-02-14T12:05:29.311Z,101571.22
2023-02-14T12:07:59.154Z,101575.63
2023-02-14T12:10:31.253Z,101577.91
2023-02-14T12:13:01.895Z,101571.94
2023-02-14T12:15:37.601Z,101570.50
2023-02-14T12:18:30.109Z,101561.31
2023-02-14T12:21:16.081Z,101562.28
2023-02-14T12:24:02.189Z,101563.31
2023-02-14T12:26:37.407Z,101565.53
2023-02-14T12:29:14.738Z,101557.28
2023-02-14T12:31:43.354Z,101558.25
2023-02-14T12:34:13.181Z,101556.13
2023-02-14T12:37:13.965Z,101550.41
2023-02-14T12:40:12.525Z,101548.13
2023-02-14T12:43:11.916Z,101537.94
2023-02-14T12:45:54.757Z,101543.34
2023-02-14T12:48:40.091Z,101545.94
2023-02-14T12:51:32.036Z,101531.69
2023-02-14T12:54:36.838Z,101541.22
2023-02-14T12:57:27.789Z,101548.22
2023-02-14T13:00:09.915Z,101537.06
2023-02-14T13:02:40.329Z,101530.12
2023-02-14T13:05:28.283Z,101521.81
2023-02-14T13:08:05.028Z,101525.00
2023-02-14T13:11:13.496Z,101532.63
2023-02-14T13:14:04.657Z,101533.72
2023-02-14T13:16:46.818Z,101521.41
2023-02-14T13:19:17.220Z,101524.44
2023-02-14T13:21:45.208Z,101524.16
2023-02-14T13:24:23.864Z,101523.09
2023-02-14T13:26:55.446Z,101527.25
2023-02-14T13:29:25.232Z,101529.94
2023-02-14T13:31:57.716Z,101523.38
2023-02-14T13:34:31.581Z,101526.62
2023-02-14T13:37:01.129Z,101526.78
2023-02-14T13:39:39.255Z,101521.50
2023-02-14T13:42:07.674Z,101527.25
2023-02-14T13:44:48.951Z,101528.50
2023-02-14T13:47:21.260Z,101526.53
2023-02-14T13:49:59.988Z,101526.53
2023-02-14T13:52:47.932Z,101510.31
2023-02-14T13:55:27.167Z,101508.47
2023-02-14T13:58:17.599Z,101509.50
2023-02-14T14:00:52.534Z,101520.09
2023-02-14T14:03:26.110Z,101518.53
2023-02-14T14:06:11.532Z,101528.63
2023-02-14T14:08:44.451Z,101531.16
2023-02-14T14:11:22.795Z,101525.84
2023-02-14T14:13:50.596Z,101531.16
2023-02-14T14:16:24.417Z,101534.34
2023-02-14T14:19:17.061Z,101530.41
2023-02-14T14:22:08.722Z,101526.03
2023-02-14T14:24:40.993Z,101522.84
2023-02-14T14:27:16.660Z,101518.97
2023-02-14T14:29:58.467Z,101524.50
2023-02-14T14:32:25.851Z,101526.53
2023-02-14T14:34:56.350Z,101522.41
2023-02-14T14:37:26.898Z,101516.03
2023-02-14T14:40:00.124Z,101513.81
2023-02-14T14:42:34.962Z,101511.53
2023-02-14T14:45:07.287Z,101512.72
2023-02-14T14:47:40.816Z,101513.22
2023-02-14T14:50:16.224Z,101508.59
2023-02-14T14:52:47.029Z,101520.81
2023-02-14T14:55:22.079Z,101513.03
2023-02-14T14:57:54.804Z,101513.88
2023-02-14T15:00:37.084Z,101519.00
2023-02-14T15:03:11.927Z,101511.25
2023-02-14T15:05:45.447Z,101511.22
2023-02-14T15:08:32.248Z,101510.63
2023-02-14T15:11:10.371Z,101512.91
2023-02-14T15:13:50.921Z,101510.97
2023-02-14T15:16:21.281Z,101517.44
2023-02-14T15:18:49.567Z,101519.91
2023-02-14T15:21:17.523Z,101519.09
2023-02-14T15:23:45.729Z,101520.41
2023-02-14T15:26:17.884Z,101522.63
2023-02-14T15:28:55.105Z,101513.81
2023-02-14T15:31:22.768Z,101511.91
2023-02-14T15:33:50.655Z,101515.91
2023-02-14T15:36:20.459Z,101517.31
2023-02-14T15:38:48.458Z,101522.63
2023-02-14T15:41:16.826Z,101517.81
2023-02-14T15:43:49.497Z,101525.84
2023-02-14T15:46:27.164Z,101521.31
2023-02-14T15:49:00.755Z,101523.28
2023-02-14T15:51:30.931Z,101517.69
2023-02-14T15:54:04.998Z,101521.34
2023-02-14T15:56:41.146Z,101520.16
2023-02-14T15:59:23.453Z,101521.87
2023-02-14T16:01:52.595Z,101522.97
2023-02-14T16:04:28.649Z,101530.97
2023-02-14T16:07:26.653Z,101527.25
2023-02-14T16:10:13.930Z,101527.16
2023-02-14T16:12:44.217Z,101525.13
2023-02-14T16:15:20.061Z,101526.19
2023-02-14T16:17:48.012Z,101526.81
2023-02-14T16:20:23.397Z,101530.84
2023-02-14T16:22:50.987Z,101535.03
2023-02-14T16:25:19.205Z,101546.16
2023-02-14T16:27:46.647Z,101540.12
2023-02-14T16:30:18.406Z,101548.72
2023-02-14T16:32:50.616Z,101544.09
2023-02-14T16:35:20.254Z,101547.91
2023-02-14T16:37:49.828Z,101548.50
2023-02-14T16:40:18.236Z,101553.44
2023-02-14T16:42:45.831Z,101552.37
2023-02-14T16:45:18.244Z,101562.37
2023-02-14T16:47:47.047Z,101563.66
2023-02-14T16:50:15.330Z,101563.19
2023-02-14T16:52:43.666Z,101561.97
2023-02-14T16:55:16.240Z,101568.47
2023-02-14T16:57:46.612Z,101569.66
2023-02-14T17:00:14.689Z,101565.19
2023-02-14T17:02:44.250Z,101571.25
2023-02-14T17:05:12.183Z,101572.81
2023-02-14T17:07:42.634Z,101584.97
2023-02-14T17:10:14.186Z,101578.84
2023-02-14T17:12:44.319Z,101582.50
2023-02-14T17:15:18.572Z,101590.63
2023-02-14T17:17:47.554Z,101589.72
2023-02-14T17:20:15.395Z,101593.81
2023-02-14T17:22:42.917Z,101594.84
2023-02-14T17:25:10.765Z,101599.19
2023-02-14T17:27:38.853Z,101592.56
2023-02-14T17:30:07.325Z,101592.84
2023-02-14T17:32:35.375Z,101595.81
2023-02-14T17:35:05.137Z,101600.69
2023-02-14T17:37:32.706Z,101606.00
2023-02-14T17:40:00.331Z,101602.22
2023-02-14T17:42:27.909Z,101602.13
2023-02-14T17:44:55.788Z,101592.84
2023-02-14T17:47:24.016Z,101591.41
2023-02-14T17:49:51.640Z,101599.47
2023-02-14T17:52:19.101Z,101601.41
2023-02-14T17:54:47.157Z,101601.41
2023-02-14T17:57:14.565Z,101593.03
2023-02-14T17:59:42.586Z,101605.09
2023-02-14T18:02:10.258Z,101602.38
2023-02-14T18:04:37.956Z,101594.22
2023-02-14T18:07:05.762Z,101586.06
2023-02-14T18:09:33.239Z,101591.75
2023-02-14T18:12:00.964Z,101599.84
2023-02-14T18:14:28.629Z,101590.06
2023-02-14T18:16:56.034Z,101591.22
2023-02-14T18:19:23.693Z,101592.66
2023-02-14T18:21:51.098Z,101583.13
2023-02-14T18:24:18.457Z,101584.16
2023-02-14T18:26:46.534Z,101584.97
2023-02-14T18:29:15.050Z,101589.22
2023-02-14T18:31:43.812Z,101588.88
2023-02-14T18:34:11.530Z,101583.81
2023-02-14T18:36:40.248Z,101579.25
2023-02-14T18:39:08.544Z,101579.53
2023-02-14T18:41:36.485Z,101574.72
2023-02-14T18:44:04.051Z,101579.59
2023-02-14T18:46:33.813Z,101582.00
2023-02-14T18:49:03.968Z,101581.72
2023-02-14T18:51:33.651Z,101572.53
2023-02-14T18:54:02.511Z,101576.06
2023-02-14T18:56:35.757Z,101574.84
2023-02-14T18:59:06.464Z,101587.28
2023-02-14T19:01:36.947Z,101588.81
2023-02-14T19:04:06.789Z,101591.34
2023-02-14T19:06:34.937Z,101591.09
2023-02-14T19:09:03.434Z,101587.28
2023-02-14T19:11:31.929Z,101583.19
2023-02-14T19:14:00.978Z,101586.22
2023-02-14T19:16:33.518Z,101588.81
2023-02-14T19:19:02.620Z,101594.47
2023-02-14T19:21:33.642Z,101592.75
2023-02-14T19:24:03.912Z,101596.03
2023-02-14T19:26:34.888Z,101597.50
2023-02-14T19:29:06.499Z,101589.72
2023-02-14T19:31:36.542Z,101586.22
2023-02-14T19:34:06.267Z,101591.97
2023-02-14T19:36:36.231Z,101592.13
2023-02-14T19:39:04.104Z,101587.03
2023-02-14T19:41:34.396Z,101590.00
2023-02-14T19:44:04.598Z,101595.13
2023-02-14T19:46:33.950Z,101592.47
2023-02-14T19:49:02.499Z,101584.22
2023-02-14T19:51:32.601Z,101587.62
2023-02-14T19:54:05.427Z,101592.28
2023-02-14T19:56:34.028Z,101590.22
2023-02-14T19:59:07.622Z,101587.06
2023-02-14T20:01:37.954Z,101588.19
2023-02-14T20:04:09.917Z,101592.56
2023-02-14T20:06:38.397Z,101591.59
2023-02-14T20:09:06.680Z,101595.75
2023-02-14T20:11:40.113Z,101597.41
2023-02-14T20:14:08.617Z,101596.56
2023-02-14T20:16:37.183Z,101597.75
2023-02-14T20:19:08.139Z,101593.88
2023-02-14T20:21:35.793Z,101589.53
2023-02-14T20:24:04.697Z,101588.97
2023-02-14T20:26:33.372Z,101595.91
2023-02-14T20:29:05.951Z,101589.50
2023-02-14T20:31:34.140Z,101592.09
2023-02-14T20:34:02.511Z,101595.25
2023-02-14T20:36:30.598Z,101599.31
2023-02-14T20:39:02.573Z,101593.47
2023-02-14T20:41:30.601Z,101588.31
2023-02-14T20:44:04.497Z,101593.31
2023-02-14T20:46:32.780Z,101590.25
2023-02-14T20:49:00.720Z,101590.16
2023-02-14T20:51:28.153Z,101590.81
2023-02-14T20:53:55.813Z,101598.00
2023-02-14T20:56:23.917Z,101590.81
2023-02-14T20:58:51.555Z,101588.66
2023-02-14T21:01:21.800Z,101586.03
2023-02-14T21:03:51.140Z,101589.50
2023-02-14T21:06:20.990Z,101589.16
2023-02-14T21:08:48.665Z,101582.66
2023-02-14T21:11:17.577Z,101585.06
2023-02-14T21:13:45.573Z,101576.53
2023-02-14T21:16:18.488Z,101578.25
2023-02-14T21:18:51.652Z,101576.97
2023-02-14T21:21:25.758Z,101573.91
2023-02-14T21:23:53.729Z,101576.69
2023-02-14T21:26:21.504Z,101580.84
2023-02-14T21:28:48.916Z,101580.03
2023-02-14T21:31:20.694Z,101581.41
2023-02-14T21:33:53.539Z,101578.66
2023-02-14T21:36:22.599Z,101587.22
2023-02-14T21:38:50.444Z,101583.13
2023-02-14T21:41:25.354Z,101578.31
2023-02-14T21:43:53.859Z,101583.81
2023-02-14T21:46:27.491Z,101587.88
2023-02-14T21:49:14.705Z,101584.03
2023-02-14T21:51:42.496Z,101585.16
2023-02-14T21:54:10.571Z,101585.81
2023-02-14T21:56:38.966Z,101591.00
2023-02-14T21:59:06.407Z,101583.94
2023-02-14T22:01:36.384Z,101589.97
2023-02-14T22:04:07.773Z,101589.75
2023-02-14T22:06:37.262Z,101595.72
2023-02-14T22:09:05.311Z,101589.69
2023-02-14T22:11:33.372Z,101599.19
2023-02-14T22:14:00.881Z,101598.06
2023-02-14T22:16:28.779Z,101594.84
2023-02-14T22:18:56.390Z,101588.47
2023-02-14T22:21:26.489Z,101587.16
2023-02-14T22:23:55.274Z,101585.25
2023-02-14T22:26:25.549Z,101598.31
2023-02-14T22:28:57.799Z,101597.22
2023-02-14T22:31:27.589Z,101589.81
2023-02-14T22:33:55.450Z,101597.00
2023-02-14T22:36:22.858Z,101598.91
2023-02-14T22:38:50.704Z,101593.34
2023-02-14T22:41:20.604Z,101594.25
2023-02-14T22:43:48.237Z,101594.69
2023-02-14T22:46:19.376Z,101594.53
2023-02-14T22:48:47.721Z,101596.97
2023-02-14T22:51:20.408Z,101594.53
2023-02-14T22:53:48.959Z,101606.37
2023-02-14T22:56:28.145Z,101606.37
2023-02-14T22:58:57.439Z,101598.00
2023-02-14T23:01:25.405Z,101600.03
2023-02-14T23:03:54.793Z,101602.13
2023-02-14T23:06:24.106Z,101606.81
2023-02-14T23:08:52.141Z,101598.00
2023-02-14T23:11:25.567Z,101606.16
2023-02-14T23:14:12.377Z,101599.81
2023-02-14T23:16:59.017Z,101602.72
2023-02-14T23:19:50.885Z,101592.91
2023-02-14T23:22:32.817Z,101598.12
2023-02-14T23:25:03.597Z,101595.38
2023-02-14T23:27:33.917Z,101598.63
2023-02-14T23:30:01.823Z,101598.00
2023-02-14T23:32:29.228Z,101592.13
2023-02-14T23:34:58.087Z,101594.88
2023-02-14T23:37:25.817Z,101599.37
2023-02-14T23:39:53.169Z,101595.22
2023-02-14T23:42:20.629Z,101588.88
2023-02-14T23:44:49.048Z,101601.00
2023-02-14T23:47:16.735Z,101588.00
2023-02-14T23:49:45.784Z,101597.28
2023-02-14T23:52:14.013Z,101601.34
2023-02-14T23:54:41.395Z,101602.38
2023-02-14T23:57:08.874Z,101595.56
2023-02-14T23:59:36.672Z,101601.50
